Time;durP1;ratioP1;P1;durP2;ratioP2;P2;SDS_P1;SDS_P2;PMS_P1;PMS_P2;Temp;Humidity;BMP_temperature;BMP_pressure;BME280_temperature;BME280_humidity;BME280_pressure;Samples;Min_cycle;Max_cycle;Signal;HPM_P1;HPM_P2
2023/07/02 00:01:03;;;;;;;23.55;7.55;;;17.60;99.90;;;;;;4931905;29;20223;-85
2023/07/02 00:03:29;;;;;;;22.80;7.72;;;17.60;99.90;;;;;;4927888;29;20246;-82
2023/07/02 00:05:56;;;;;;;22.08;7.50;;;17.50;99.90;;;;;;4902024;29;20234;-81
2023/07/02 00:08:22;;;;;;;21.60;8.07;;;17.50;99.90;;;;;;4915384;29;20310;-80
2023/07/02 00:10:48;;;;;;;19.15;7.65;;;17.50;99.90;;;;;;4932190;29;20286;-81
2023/07/02 00:13:14;;;;;;;21.30;7.95;;;17.50;99.90;;;;;;4903304;29;20732;-82
2023/07/02 00:15:41;;;;;;;23.05;8.23;;;17.40;99.90;;;;;;4918155;29;20214;-81
2023/07/02 00:18:07;;;;;;;25.85;8.13;;;17.40;99.90;;;;;;4927252;29;20199;-80
2023/07/02 00:20:37;;;;;;;21.50;8.63;;;17.40;99.90;;;;;;4934936;29;20191;-80
2023/07/02 00:23:08;;;;;;;18.98;7.93;;;17.40;99.90;;;;;;4927848;29;20192;-81
2023/07/02 00:25:34;;;;;;;25.20;8.65;;;17.30;99.90;;;;;;4916976;29;20559;-79
2023/07/02 00:28:00;;;;;;;25.50;8.25;;;17.30;99.90;;;;;;4918636;29;20310;-82
2023/07/02 00:30:26;;;;;;;25.95;8.95;;;17.30;99.90;;;;;;4932504;29;20684;-81
2023/07/02 00:32:52;;;;;;;22.95;8.20;;;17.30;99.90;;;;;;4923866;29;20191;-80
2023/07/02 00:35:17;;;;;;;28.92;9.15;;;17.30;99.90;;;;;;4917234;29;20210;-81
2023/07/02 00:37:43;;;;;;;28.52;9.45;;;17.30;99.90;;;;;;4899308;29;20195;-81
2023/07/02 00:40:09;;;;;;;25.92;8.98;;;17.20;99.90;;;;;;4932814;29;20187;-80
2023/07/02 00:42:35;;;;;;;24.92;9.25;;;17.20;99.90;;;;;;4910328;29;20231;-82
2023/07/02 00:45:04;;;;;;;26.63;9.25;;;17.20;99.90;;;;;;4932288;29;20191;-80
2023/07/02 00:47:33;;;;;;;26.50;9.82;;;17.20;99.90;;;;;;4911445;29;20241;-81
2023/07/02 00:50:00;;;;;;;28.83;9.77;;;17.10;99.90;;;;;;4911266;29;20199;-81
2023/07/02 00:52:26;;;;;;;34.08;9.65;;;17.10;99.90;;;;;;4918059;29;20330;-81
2023/07/02 00:54:52;;;;;;;31.73;9.60;;;17.10;99.90;;;;;;4934834;29;20612;-81
2023/07/02 00:57:18;;;;;;;28.77;9.68;;;17.10;99.90;;;;;;4914389;29;20572;-82
2023/07/02 00:59:44;;;;;;;33.58;9.80;;;17.10;99.90;;;;;;4917094;29;20191;-81
2023/07/02 01:02:10;;;;;;;27.60;9.95;;;17.00;99.90;;;;;;4933715;29;20187;-81
2023/07/02 01:04:37;;;;;;;33.05;10.07;;;17.00;99.90;;;;;;4932955;29;20562;-81
2023/07/02 01:07:08;;;;;;;26.92;9.45;;;17.00;99.90;;;;;;4928481;29;20215;-85
2023/07/02 01:09:34;;;;;;;31.67;10.02;;;17.00;99.90;;;;;;4925910;29;20195;-80
2023/07/02 01:12:07;;;;;;;26.60;9.38;;;16.90;99.90;;;;;;4914286;29;20191;-80
2023/07/02 01:14:39;;;;;;;24.45;8.68;;;16.90;99.90;;;;;;4926296;29;20199;-81
2023/07/02 01:17:06;;;;;;;29.17;9.52;;;16.90;99.90;;;;;;4914342;29;20191;-82
2023/07/02 01:19:45;;;;;;;27.65;9.23;;;16.90;99.90;;;;;;4929828;29;20194;-80
2023/07/02 01:22:12;;;;;;;30.88;9.90;;;16.90;99.90;;;;;;4931200;29;20687;-81
2023/07/02 01:24:41;;;;;;;34.30;9.95;;;16.90;99.90;;;;;;4916663;29;20194;-81
2023/07/02 01:27:10;;;;;;;25.75;9.80;;;16.90;99.90;;;;;;4932697;29;20340;-81
2023/07/02 01:29:36;;;;;;;32.30;10.48;;;16.80;99.90;;;;;;4916501;29;20274;-80
2023/07/02 01:32:02;;;;;;;32.30;10.43;;;16.80;99.90;;;;;;4897528;29;20183;-80
2023/07/02 01:34:28;;;;;;;28.38;9.88;;;16.80;99.90;;;;;;4931414;29;20195;-81
2023/07/02 01:36:54;;;;;;;31.35;9.77;;;16.80;99.90;;;;;;4937787;29;20187;-80
2023/07/02 01:39:20;;;;;;;29.58;10.15;;;16.70;99.90;;;;;;4936580;29;20262;-80
2023/07/02 01:41:51;;;;;;;32.40;10.20;;;16.70;99.90;;;;;;4920244;29;20227;-83
2023/07/02 01:44:17;;;;;;;36.53;11.20;;;16.70;99.90;;;;;;4937630;29;20207;-80
2023/07/02 01:46:44;;;;;;;37.38;10.68;;;16.70;99.90;;;;;;4930300;29;20273;-80
2023/07/02 01:49:11;;;;;;;36.58;10.85;;;16.70;99.90;;;;;;4916256;29;20192;-81
2023/07/02 01:51:38;;;;;;;32.00;10.82;;;16.60;99.90;;;;;;4937901;29;20195;-81
2023/07/02 01:54:04;;;;;;;37.50;10.88;;;16.60;99.90;;;;;;4914060;29;20282;-83
2023/07/02 01:56:29;;;;;;;32.70;10.73;;;16.60;99.90;;;;;;4925714;29;20633;-81
2023/07/02 01:58:55;;;;;;;31.88;10.18;;;16.60;99.90;;;;;;4907392;29;20202;-80
2023/07/02 02:01:21;;;;;;;33.80;10.57;;;16.60;99.90;;;;;;4935253;29;20191;-84
2023/07/02 02:03:47;;;;;;;30.67;10.43;;;16.60;99.90;;;;;;4920537;29;21002;-80
2023/07/02 02:06:13;;;;;;;28.23;10.23;;;16.60;99.90;;;;;;4911636;29;20636;-81
2023/07/02 02:08:38;;;;;;;32.45;11.40;;;16.50;99.90;;;;;;4915557;29;20223;-84
2023/07/02 02:11:04;;;;;;;34.55;11.25;;;16.50;99.90;;;;;;4916645;29;20648;-84
2023/07/02 02:13:30;;;;;;;35.60;10.60;;;16.50;99.90;;;;;;4903660;29;20611;-86
2023/07/02 02:15:56;;;;;;;31.70;10.40;;;16.40;99.90;;;;;;4933311;29;20538;-80
2023/07/02 02:18:21;;;;;;;33.72;11.82;;;16.40;99.90;;;;;;4915500;29;20649;-81
2023/07/02 02:20:47;;;;;;;34.05;11.07;;;16.40;99.90;;;;;;4920488;29;20191;-80
2023/07/02 02:23:13;;;;;;;35.53;11.38;;;16.40;99.90;;;;;;4930981;29;20184;-81
2023/07/02 02:25:39;;;;;;;34.38;10.65;;;16.40;99.90;;;;;;4920255;29;20660;-80
2023/07/02 02:28:04;;;;;;;29.92;10.93;;;16.30;99.90;;;;;;4903672;29;20533;-83
2023/07/02 02:30:30;;;;;;;36.53;11.00;;;16.30;99.90;;;;;;4912214;29;20195;-80
2023/07/02 02:32:56;;;;;;;35.90;10.82;;;16.30;99.90;;;;;;4913985;29;20198;-80
2023/07/02 02:35:22;;;;;;;32.05;11.00;;;16.30;99.90;;;;;;4910294;29;20199;-80
2023/07/02 02:37:49;;;;;;;37.17;11.27;;;16.20;99.90;;;;;;4919271;29;20239;-80
2023/07/02 02:40:15;;;;;;;37.90;11.93;;;16.20;99.90;;;;;;4907016;29;20206;-80
2023/07/02 02:42:41;;;;;;;32.25;10.73;;;16.20;99.90;;;;;;4919643;29;20235;-82
2023/07/02 02:45:08;;;;;;;35.63;11.20;;;16.20;99.90;;;;;;4935726;29;20187;-81
2023/07/02 02:47:34;;;;;;;30.65;11.13;;;16.20;99.90;;;;;;4910168;29;20217;-81
2023/07/02 02:50:00;;;;;;;30.77;10.48;;;16.10;99.90;;;;;;4925618;29;20266;-80
2023/07/02 02:52:26;;;;;;;31.35;11.18;;;16.10;99.90;;;;;;4888041;29;20199;-80
2023/07/02 02:54:52;;;;;;;37.17;11.23;;;16.10;99.90;;;;;;4919979;29;20282;-80
2023/07/02 02:57:18;;;;;;;32.42;10.95;;;16.10;99.90;;;;;;4927834;29;20246;-80
2023/07/02 02:59:44;;;;;;;34.17;11.25;;;16.10;99.90;;;;;;4919202;29;20560;-80
2023/07/02 03:02:10;;;;;;;37.95;11.07;;;16.00;99.90;;;;;;4936089;29;20526;-82
2023/07/02 03:04:39;;;;;;;33.88;10.55;;;16.00;99.90;;;;;;4916398;29;20263;-81
2023/07/02 03:07:07;;;;;;;32.95;11.52;;;16.00;99.90;;;;;;4933150;29;20310;-83
2023/07/02 03:09:33;;;;;;;28.77;10.52;;;16.00;99.90;;;;;;4912391;29;20195;-79
2023/07/02 03:11:59;;;;;;;36.55;10.95;;;16.00;99.90;;;;;;4918591;29;20198;-80
2023/07/02 03:14:25;;;;;;;39.40;14.55;;;16.00;99.90;;;;;;4902287;29;20214;-80
2023/07/02 03:16:51;;;;;;;42.97;16.15;;;15.90;99.90;;;;;;4931270;29;20555;-80
2023/07/02 03:19:16;;;;;;;38.75;16.38;;;15.90;99.90;;;;;;4918117;29;20548;-80
2023/07/02 03:21:43;;;;;;;37.95;13.23;;;15.90;99.90;;;;;;4931005;29;20629;-79
2023/07/02 03:24:12;;;;;;;40.17;14.43;;;15.90;99.90;;;;;;4893775;29;20196;-80
2023/07/02 03:26:39;;;;;;;38.17;12.93;;;15.80;99.90;;;;;;4910217;29;20188;-80
2023/07/02 03:29:05;;;;;;;35.88;13.98;;;15.80;99.90;;;;;;4931758;29;20230;-82
2023/07/02 03:31:31;;;;;;;37.35;13.43;;;15.80;99.90;;;;;;4919652;29;20192;-79
2023/07/02 03:33:57;;;;;;;42.03;14.45;;;15.80;99.90;;;;;;4912942;29;20198;-80
2023/07/02 03:36:22;;;;;;;30.58;11.40;;;15.80;99.90;;;;;;4911706;29;20724;-79
2023/07/02 03:38:48;;;;;;;32.47;10.88;;;15.80;99.90;;;;;;4906465;29;20200;-80
2023/07/02 03:41:14;;;;;;;31.90;12.15;;;15.80;99.90;;;;;;4915009;29;20228;-80
2023/07/02 03:43:40;;;;;;;32.45;11.05;;;15.80;99.90;;;;;;4935822;29;20187;-85
2023/07/02 03:46:05;;;;;;;34.60;10.75;;;15.70;99.90;;;;;;4916668;29;20195;-80
2023/07/02 03:48:31;;;;;;;34.28;10.90;;;15.80;99.90;;;;;;4935150;29;20218;-79
2023/07/02 03:50:57;;;;;;;41.55;11.38;;;15.70;99.90;;;;;;4919085;29;20191;-79
2023/07/02 03:53:23;;;;;;;36.17;10.75;;;15.70;99.90;;;;;;4901803;29;20222;-82
2023/07/02 03:55:48;;;;;;;34.60;10.77;;;15.70;99.90;;;;;;4935404;29;20731;-80
2023/07/02 03:58:14;;;;;;;30.45;10.98;;;15.70;99.90;;;;;;4928028;29;20202;-80
2023/07/02 04:00:41;;;;;;;30.48;10.75;;;15.80;99.90;;;;;;4918450;29;20234;-81
2023/07/02 04:03:07;;;;;;;29.38;10.70;;;15.70;99.90;;;;;;4911301;29;20219;-82
2023/07/02 04:05:33;;;;;;;28.23;9.75;;;15.80;99.90;;;;;;4914210;29;20624;-80
2023/07/02 04:07:59;;;;;;;34.83;10.35;;;15.80;99.90;;;;;;4917222;29;20238;-81
2023/07/02 04:10:25;;;;;;;33.83;9.93;;;15.80;99.90;;;;;;4901900;29;20191;-81
2023/07/02 04:12:51;;;;;;;30.52;10.10;;;15.80;99.90;;;;;;4924614;29;20184;-80
2023/07/02 04:15:16;;;;;;;30.13;10.30;;;15.80;99.90;;;;;;4933206;29;20191;-81
2023/07/02 04:17:42;;;;;;;29.30;10.48;;;15.80;99.90;;;;;;4896013;29;20187;-81
2023/07/02 04:20:09;;;;;;;33.85;9.55;;;15.80;99.90;;;;;;4902336;29;20238;-82
2023/07/02 04:22:35;;;;;;;35.28;10.38;;;15.80;99.90;;;;;;4911375;29;20294;-81
2023/07/02 04:25:01;;;;;;;30.75;9.50;;;15.80;99.90;;;;;;4920577;29;20666;-81
2023/07/02 04:27:27;;;;;;;34.00;11.10;;;15.80;99.90;;;;;;4925239;29;20278;-82
2023/07/02 04:29:55;;;;;;;35.78;10.35;;;15.90;99.90;;;;;;4918762;29;20636;-81
2023/07/02 04:32:20;;;;;;;32.30;10.07;;;15.90;99.90;;;;;;4918480;29;20319;-81
2023/07/02 04:34:46;;;;;;;35.20;9.73;;;15.90;99.90;;;;;;4914396;29;20274;-80
2023/07/02 04:37:12;;;;;;;29.35;10.02;;;15.80;99.90;;;;;;4902038;29;20196;-81
2023/07/02 04:39:38;;;;;;;33.03;10.10;;;15.90;99.90;;;;;;4917962;29;20273;-81
2023/07/02 04:42:04;;;;;;;31.15;9.90;;;15.90;99.90;;;;;;4915710;29;20258;-83
2023/07/02 04:44:29;;;;;;;28.95;9.68;;;15.90;99.90;;;;;;4925076;29;20195;-80
2023/07/02 04:47:00;;;;;;;31.85;10.32;;;15.90;99.90;;;;;;4912695;29;20290;-80
2023/07/02 04:49:27;;;;;;;35.85;10.18;;;15.90;99.90;;;;;;4927904;29;20498;-80
2023/07/02 04:51:54;;;;;;;31.52;9.43;;;15.90;99.90;;;;;;4935052;29;20290;-80
2023/07/02 04:54:22;;;;;;;31.13;9.85;;;15.90;99.90;;;;;;4912982;29;20187;-80
2023/07/02 04:56:48;;;;;;;28.88;9.10;;;15.90;99.90;;;;;;4910139;29;20694;-81
2023/07/02 04:59:15;;;;;;;32.05;9.88;;;16.00;99.90;;;;;;4927360;29;20187;-80
2023/07/02 05:01:41;;;;;;;24.85;9.57;;;16.00;99.90;;;;;;4928937;29;20190;-79
2023/07/02 05:04:11;;;;;;;32.38;9.40;;;16.00;99.90;;;;;;4901164;29;20640;-81
2023/07/02 05:06:36;;;;;;;29.20;8.98;;;16.00;99.90;;;;;;4906587;29;20640;-79
2023/07/02 05:09:02;;;;;;;35.90;9.60;;;16.10;99.90;;;;;;4931231;29;20270;-81
2023/07/02 05:11:28;;;;;;;25.90;7.68;;;16.10;99.90;;;;;;4936776;29;20207;-86
2023/07/02 05:13:54;;;;;;;29.58;7.55;;;16.10;99.90;;;;;;4910606;29;20297;-80
2023/07/02 05:16:20;;;;;;;31.30;7.97;;;16.10;99.90;;;;;;4938985;29;20274;-80
2023/07/02 05:18:46;;;;;;;20.63;7.72;;;16.20;99.90;;;;;;4922001;29;20569;-79
2023/07/02 05:21:12;;;;;;;22.55;7.35;;;16.30;99.90;;;;;;4932880;29;20198;-80
2023/07/02 05:23:38;;;;;;;21.10;7.13;;;16.30;99.90;;;;;;4919361;29;20242;-80
2023/07/02 05:26:03;;;;;;;25.83;7.85;;;16.40;99.90;;;;;;4920783;29;20180;-80
2023/07/02 05:28:29;;;;;;;22.25;7.38;;;16.40;99.90;;;;;;4938648;29;20210;-81
2023/07/02 05:30:55;;;;;;;16.85;6.72;;;16.50;99.90;;;;;;4938197;29;20270;-79
2023/07/02 05:33:23;;;;;;;22.23;6.75;;;16.50;99.90;;;;;;4921945;29;20227;-79
2023/07/02 05:35:49;;;;;;;21.85;6.78;;;16.50;99.90;;;;;;4939301;29;20223;-79
2023/07/02 05:38:16;;;;;;;22.15;6.75;;;16.50;99.90;;;;;;4938948;29;20293;-79
2023/07/02 05:40:41;;;;;;;19.35;6.40;;;16.50;99.90;;;;;;4939232;29;20296;-80
2023/07/02 05:43:07;;;;;;;23.00;7.40;;;16.60;99.90;;;;;;4909067;29;20286;-81
2023/07/02 05:45:33;;;;;;;21.35;7.65;;;16.60;99.90;;;;;;4938482;29;20675;-80
2023/07/02 05:47:59;;;;;;;22.73;7.32;;;16.60;99.90;;;;;;4938524;29;20207;-80
2023/07/02 05:50:25;;;;;;;20.92;7.22;;;16.60;99.90;;;;;;4938540;29;20194;-79
2023/07/02 05:52:51;;;;;;;24.05;7.47;;;16.70;99.90;;;;;;4938394;29;20187;-80
2023/07/02 05:55:16;;;;;;;20.58;6.88;;;16.70;99.90;;;;;;4905818;29;20195;-78
2023/07/02 05:57:42;;;;;;;22.92;7.25;;;16.80;99.90;;;;;;4922008;29;20639;-80
2023/07/02 06:00:08;;;;;;;25.00;7.50;;;16.80;99.90;;;;;;4917852;29;20652;-79
2023/07/02 06:02:37;;;;;;;20.58;6.90;;;16.90;99.90;;;;;;4920607;29;20203;-80
2023/07/02 06:05:03;;;;;;;23.45;6.80;;;17.00;99.90;;;;;;4933022;29;20266;-79
2023/07/02 06:07:29;;;;;;;22.30;7.13;;;17.00;99.90;;;;;;4897128;29;20218;-79
2023/07/02 06:09:55;;;;;;;22.55;7.13;;;17.10;99.90;;;;;;4934699;29;20560;-79
2023/07/02 06:12:22;;;;;;;24.85;7.72;;;17.10;99.90;;;;;;4917625;29;20238;-79
2023/07/02 06:14:48;;;;;;;23.27;6.63;;;17.10;99.90;;;;;;4934606;29;20219;-78
2023/07/02 06:17:15;;;;;;;22.02;7.35;;;17.20;99.90;;;;;;4902848;29;20190;-79
2023/07/02 06:19:41;;;;;;;22.77;7.05;;;17.20;99.90;;;;;;4937863;29;20183;-79
2023/07/02 06:22:06;;;;;;;20.83;6.97;;;17.20;99.90;;;;;;4923525;29;20251;-79
2023/07/02 06:24:32;;;;;;;21.95;7.00;;;17.20;99.90;;;;;;4925573;29;20183;-79
2023/07/02 06:26:58;;;;;;;20.17;6.53;;;17.20;99.90;;;;;;4938182;29;20271;-79
2023/07/02 06:29:24;;;;;;;21.13;6.85;;;17.30;99.90;;;;;;4921497;29;20183;-79
2023/07/02 06:31:50;;;;;;;18.50;6.68;;;17.30;99.90;;;;;;4920950;29;20191;-79
2023/07/02 06:34:16;;;;;;;24.08;7.53;;;17.30;99.90;;;;;;4938160;29;20187;-78
2023/07/02 06:36:42;;;;;;;25.10;7.35;;;17.40;99.90;;;;;;4910761;29;20544;-81
2023/07/02 06:39:09;;;;;;;18.90;6.60;;;17.40;99.90;;;;;;4907202;29;20266;-80
2023/07/02 06:41:35;;;;;;;19.92;6.72;;;17.50;99.90;;;;;;4919090;29;20230;-77
2023/07/02 06:44:01;;;;;;;18.52;6.75;;;17.60;99.90;;;;;;4919351;29;20239;-78
2023/07/02 06:46:28;;;;;;;19.50;4.78;;;17.60;99.90;;;;;;4919863;29;20220;-77
2023/07/02 06:48:54;;;;;;;17.35;4.53;;;17.70;99.90;;;;;;4927988;29;20228;-77
2023/07/02 06:51:21;;;;;;;18.00;4.90;;;17.70;99.90;;;;;;4940547;29;20193;-76
2023/07/02 06:53:47;;;;;;;17.48;4.65;;;17.70;99.90;;;;;;4942001;29;20188;-80
2023/07/02 06:56:13;;;;;;;9.35;3.75;;;17.80;99.90;;;;;;4925483;29;20267;-76
2023/07/02 06:58:45;;;;;;;15.77;5.18;;;17.80;99.90;;;;;;4913340;29;20202;-79
2023/07/02 07:01:10;;;;;;;14.70;4.70;;;17.90;99.90;;;;;;4917841;29;20313;-77
2023/07/02 07:03:36;;;;;;;14.43;4.80;;;17.90;99.90;;;;;;4943889;29;20250;-76
2023/07/02 07:06:03;;;;;;;14.95;4.22;;;17.90;99.90;;;;;;4933638;29;20195;-77
2023/07/02 07:08:29;;;;;;;15.50;4.40;;;18.00;99.90;;;;;;4919041;29;20204;-77
2023/07/02 07:10:55;;;;;;;14.77;4.38;;;18.00;99.90;;;;;;4933066;29;20206;-79
2023/07/02 07:13:20;;;;;;;15.30;4.25;;;18.10;99.90;;;;;;4938274;29;20207;-77
2023/07/02 07:15:46;;;;;;;17.80;4.60;;;18.10;99.90;;;;;;4932148;29;20195;-78
2023/07/02 07:18:13;;;;;;;15.52;3.85;;;18.10;99.90;;;;;;4920607;29;20270;-78
2023/07/02 07:20:41;;;;;;;14.77;6.70;;;18.10;99.90;;;;;;4901554;29;20187;-77
2023/07/02 07:23:07;;;;;;;12.35;3.75;;;18.00;99.90;;;;;;4917674;29;20183;-78
2023/07/02 07:25:32;;;;;;;11.70;3.75;;;18.00;99.90;;;;;;4934469;29;20187;-78
2023/07/02 07:27:59;;;;;;;18.33;6.35;;;17.90;99.90;;;;;;4914791;29;20812;-80
2023/07/02 07:30:25;;;;;;;14.98;4.93;;;17.90;99.90;;;;;;4890700;29;20272;-81
2023/07/02 07:32:52;;;;;;;17.60;6.93;;;17.90;99.90;;;;;;4931639;29;20235;-80
2023/07/02 07:35:21;;;;;;;13.60;4.00;;;17.90;99.90;;;;;;4936417;29;20190;-79
2023/07/02 07:37:47;;;;;;;13.60;3.88;;;17.90;99.90;;;;;;4918196;29;20195;-78
2023/07/02 07:40:13;;;;;;;15.00;5.35;;;17.90;99.90;;;;;;4905128;29;20179;-79
2023/07/02 07:42:39;;;;;;;15.73;4.10;;;18.00;99.90;;;;;;4930244;29;20286;-79
2023/07/02 07:45:06;;;;;;;12.35;3.63;;;18.00;99.90;;;;;;4935431;29;20238;-78
2023/07/02 07:47:31;;;;;;;9.23;3.90;;;18.00;99.90;;;;;;4936387;29;20210;-78
2023/07/02 07:49:57;;;;;;;9.90;3.40;;;18.10;99.90;;;;;;4919850;29;20195;-77
2023/07/02 07:52:23;;;;;;;17.65;7.25;;;18.20;99.90;;;;;;4936328;29;20184;-80
2023/07/02 07:54:48;;;;;;;16.65;9.07;;;18.20;99.90;;;;;;4918563;29;20274;-81
2023/07/02 07:57:14;;;;;;;18.50;9.65;;;18.20;99.90;;;;;;4929139;29;20649;-79
2023/07/02 07:59:40;;;;;;;16.95;9.15;;;18.30;99.90;;;;;;4903718;29;20238;-81
2023/07/02 08:02:06;;;;;;;12.95;6.72;;;18.40;99.90;;;;;;4936361;29;20207;-80
2023/07/02 08:04:32;;;;;;;11.98;5.47;;;18.50;99.90;;;;;;4936114;29;20179;-81
2023/07/02 08:06:58;;;;;;;14.30;5.55;;;18.50;99.90;;;;;;4915070;29;20194;-87
2023/07/02 08:09:24;;;;;;;12.02;4.10;;;18.60;99.90;;;;;;4916353;29;20550;-78
2023/07/02 08:11:50;;;;;;;17.38;4.05;;;18.60;99.90;;;;;;4911314;29;20188;-78
2023/07/02 08:14:18;;;;;;;11.57;4.20;;;18.70;99.90;;;;;;4900500;29;20275;-79
2023/07/02 08:16:44;;;;;;;21.08;4.53;;;18.90;99.90;;;;;;4916800;29;20659;-79
2023/07/02 08:19:10;;;;;;;12.57;3.47;;;18.90;99.90;;;;;;4916874;29;20184;-78
2023/07/02 08:21:36;;;;;;;14.30;3.92;;;18.90;99.90;;;;;;4934555;29;20206;-79
2023/07/02 08:24:03;;;;;;;16.45;4.07;;;18.90;99.90;;;;;;4918780;29;20191;-79
2023/07/02 08:26:29;;;;;;;16.95;4.05;;;18.90;99.90;;;;;;4936210;29;20187;-79
2023/07/02 08:28:54;;;;;;;13.15;3.65;;;18.80;99.90;;;;;;4933209;29;20766;-79
2023/07/02 08:31:20;;;;;;;14.93;3.95;;;18.70;99.90;;;;;;4924376;29;20776;-80
2023/07/02 08:33:46;;;;;;;12.55;4.40;;;18.70;99.90;;;;;;4900275;29;20560;-79
2023/07/02 08:36:16;;;;;;;18.38;4.70;;;18.60;99.90;;;;;;4928254;29;20183;-79
2023/07/02 08:38:43;;;;;;;19.55;4.90;;;18.50;99.90;;;;;;4917867;29;20195;-80
2023/07/02 08:41:09;;;;;;;18.13;4.80;;;18.40;99.90;;;;;;4911474;29;20188;-79
2023/07/02 08:43:36;;;;;;;20.40;5.40;;;18.30;99.90;;;;;;4918848;29;20189;-78
2023/07/02 08:46:02;;;;;;;12.07;4.93;;;18.20;99.90;;;;;;4935354;29;20198;-79
2023/07/02 08:48:29;;;;;;;12.90;4.30;;;18.20;99.90;;;;;;4918367;29;20661;-78
2023/07/02 08:50:58;;;;;;;17.40;5.13;;;18.20;99.90;;;;;;4931784;29;20281;-80
2023/07/02 08:53:29;;;;;;;14.80;5.00;;;18.30;99.90;;;;;;4920121;29;20274;-79
2023/07/02 08:55:56;;;;;;;12.77;4.68;;;18.40;99.90;;;;;;4917025;29;20267;-80
2023/07/02 08:58:22;;;;;;;16.80;5.13;;;18.50;99.90;;;;;;4912715;29;20198;-78
2023/07/02 09:01:07;;;;;;;16.23;4.70;;;18.60;99.90;;;;;;4917830;29;20720;-79
2023/07/02 09:03:33;;;;;;;18.75;4.43;;;18.70;99.90;;;;;;4918184;29;20970;-80
2023/07/02 09:05:59;;;;;;;14.73;4.47;;;18.90;99.90;;;;;;4915007;29;20623;-80
2023/07/02 09:08:27;;;;;;;16.45;4.78;;;19.00;99.90;;;;;;4931881;29;20219;-82
2023/07/02 09:10:53;;;;;;;13.48;4.50;;;19.00;99.90;;;;;;4913568;29;20199;-80
2023/07/02 09:13:19;;;;;;;21.00;8.27;;;19.20;99.90;;;;;;4935491;29;20263;-79
2023/07/02 09:15:45;;;;;;;40.92;21.52;;;19.20;99.90;;;;;;4933166;29;20274;-79
2023/07/02 09:18:19;;;;;;;13.70;5.70;;;19.20;99.90;;;;;;4915925;29;20187;-80
2023/07/02 09:20:45;;;;;;;14.00;4.35;;;19.30;99.90;;;;;;4933729;29;20187;-81
2023/07/02 09:23:11;;;;;;;11.68;3.92;;;19.30;99.90;;;;;;4919260;29;20662;-79
2023/07/02 09:25:38;;;;;;;18.73;8.25;;;19.30;99.90;;;;;;4927288;29;20215;-79
2023/07/02 09:28:22;;;;;;;11.27;5.00;;;19.30;99.90;;;;;;4931799;29;20680;-80
2023/07/02 09:30:56;;;;;;;12.77;8.18;;;19.30;99.90;;;;;;4932499;29;20226;-80
2023/07/02 09:33:28;;;;;;;11.85;6.38;;;19.30;99.90;;;;;;4916897;29;20203;-79
2023/07/02 09:35:55;;;;;;;11.95;6.75;;;19.30;99.90;;;;;;4907023;29;20212;-80
2023/07/02 09:38:21;;;;;;;13.25;8.82;;;19.40;99.90;;;;;;4915966;29;20188;-80
2023/07/02 09:40:50;;;;;;;11.30;4.03;;;19.50;99.90;;;;;;4922075;29;20187;-81
2023/07/02 09:43:17;;;;;;;5.65;2.83;;;19.60;99.60;;;;;;4922044;29;20279;-80
2023/07/02 09:45:45;;;;;;;9.18;3.00;;;19.80;99.00;;;;;;4933000;29;20192;-79
2023/07/02 09:48:14;;;;;;;11.93;2.63;;;19.90;98.20;;;;;;4928904;29;20214;-81
2023/07/02 09:50:42;;;;;;;10.57;2.85;;;20.00;97.30;;;;;;4900840;29;20624;-86
2023/07/02 09:53:08;;;;;;;9.48;2.80;;;20.00;96.80;;;;;;4905133;29;20299;-81
2023/07/02 09:55:34;;;;;;;7.32;2.50;;;20.00;96.10;;;;;;4926778;29;20651;-80
2023/07/02 09:58:00;;;;;;;9.18;2.50;;;20.00;95.60;;;;;;4921138;29;20235;-80
2023/07/02 10:00:25;;;;;;;13.45;2.80;;;20.00;94.60;;;;;;4938022;29;20238;-79
2023/07/02 10:02:51;;;;;;;9.55;2.78;;;20.00;94.40;;;;;;4920127;29;20598;-80
2023/07/02 10:05:43;;;;;;;12.98;3.05;;;20.10;94.70;;;;;;4938152;29;20198;-80
2023/07/02 10:08:14;;;;;;;10.32;2.83;;;20.20;94.30;;;;;;4929595;29;20242;-80
2023/07/02 10:10:40;;;;;;;9.50;2.90;;;20.20;94.00;;;;;;4920311;29;20204;-80
2023/07/02 10:13:06;;;;;;;9.25;2.97;;;20.20;93.80;;;;;;4933051;29;20556;-82
2023/07/02 10:15:37;;;;;;;7.47;3.20;;;20.20;93.80;;;;;;4920474;29;20187;-79
2023/07/02 10:18:04;;;;;;;12.30;3.33;;;20.20;94.00;;;;;;4920553;29;20193;-80
2023/07/02 10:20:33;;;;;;;11.80;3.03;;;20.20;94.20;;;;;;4926770;29;20331;-80
2023/07/02 10:23:01;;;;;;;10.98;3.03;;;20.20;94.20;;;;;;4933994;29;20710;-80
2023/07/02 10:25:29;;;;;;;10.25;2.53;;;20.20;94.10;;;;;;4933673;29;20191;-80
2023/07/02 10:27:55;;;;;;;9.82;2.88;;;20.30;93.40;;;;;;4906262;29;20219;-81
2023/07/02 10:30:38;;;;;;;10.68;2.85;;;20.30;93.20;;;;;;4930314;29;20199;-79
2023/07/02 10:33:11;;;;;;;12.32;2.78;;;20.30;93.10;;;;;;4930026;29;20641;-79
2023/07/02 10:35:38;;;;;;;10.50;2.78;;;20.40;92.80;;;;;;4919184;29;20163;-79
2023/07/02 10:38:06;;;;;;;11.25;3.30;;;20.50;92.60;;;;;;4919358;29;20176;-78
2023/07/02 10:40:33;;;;;;;15.65;3.50;;;20.50;92.40;;;;;;4933754;29;20213;-79
2023/07/02 10:42:59;;;;;;;14.27;3.40;;;20.60;92.70;;;;;;4937331;29;20234;-79
2023/07/02 10:45:32;;;;;;;9.90;3.67;;;20.60;92.70;;;;;;4932280;29;20199;-79
2023/07/02 10:47:58;;;;;;;9.13;3.45;;;20.70;92.50;;;;;;4920750;29;20221;-79
2023/07/02 10:50:26;;;;;;;12.10;3.55;;;20.70;92.50;;;;;;4936917;29;20206;-80
2023/07/02 10:52:52;;;;;;;10.93;3.47;;;20.70;92.40;;;;;;4937719;29;20206;-79
2023/07/02 10:55:23;;;;;;;13.63;3.20;;;20.80;92.50;;;;;;4916416;29;20234;-80
2023/07/02 10:57:53;;;;;;;10.75;3.00;;;20.80;92.20;;;;;;4919821;29;20192;-80
2023/07/02 11:00:19;;;;;;;10.15;3.17;;;20.90;92.00;;;;;;4920395;29;20255;-80
2023/07/02 11:02:45;;;;;;;12.80;4.15;;;20.90;91.70;;;;;;4937166;29;20538;-81
2023/07/02 11:05:14;;;;;;;13.10;3.72;;;20.90;91.80;;;;;;4911548;29;20188;-80
2023/07/02 11:07:41;;;;;;;14.35;3.47;;;20.90;91.80;;;;;;4886375;29;20259;-81
2023/07/02 11:10:08;;;;;;;9.68;3.42;;;20.90;91.40;;;;;;4918218;29;20180;-80
2023/07/02 11:12:34;;;;;;;9.25;3.38;;;20.80;91.30;;;;;;4901158;29;20180;-80
2023/07/02 11:15:10;;;;;;;12.18;3.00;;;20.80;91.50;;;;;;4936156;29;20194;-85
2023/07/02 11:17:37;;;;;;;9.30;2.95;;;20.80;91.50;;;;;;4933356;29;20214;-82
2023/07/02 11:20:05;;;;;;;11.68;3.20;;;20.80;91.40;;;;;;4920269;29;20236;-82
2023/07/02 11:22:35;;;;;;;12.15;3.55;;;20.80;91.40;;;;;;4914562;29;20204;-80
2023/07/02 11:25:14;;;;;;;9.02;2.70;;;20.80;91.70;;;;;;4936868;29;20194;-80
2023/07/02 11:27:40;;;;;;;7.78;2.75;;;20.80;91.20;;;;;;4918657;29;20245;-79
2023/07/02 11:30:07;;;;;;;10.90;3.03;;;20.80;90.90;;;;;;4920750;29;20199;-83
2023/07/02 11:32:50;;;;;;;9.50;2.80;;;20.90;90.90;;;;;;4928820;29;20192;-80
2023/07/02 11:35:17;;;;;;;11.07;3.17;;;20.90;90.80;;;;;;4929969;29;20610;-81
2023/07/02 11:37:43;;;;;;;7.13;2.60;;;21.00;91.20;;;;;;4903299;29;20200;-81
2023/07/02 11:40:09;;;;;;;9.45;2.58;;;21.10;90.40;;;;;;4916231;29;20255;-81
2023/07/02 11:42:35;;;;;;;13.35;2.60;;;21.10;90.10;;;;;;4924236;29;20226;-80
2023/07/02 11:45:01;;;;;;;6.35;2.45;;;21.20;90.20;;;;;;4935595;29;20226;-83
2023/07/02 11:47:27;;;;;;;8.48;2.70;;;21.20;89.60;;;;;;4929405;29;20298;-80
2023/07/02 11:49:54;;;;;;;9.23;2.63;;;21.30;89.60;;;;;;4936005;29;20528;-80
2023/07/02 11:52:21;;;;;;;12.73;2.90;;;21.30;89.30;;;;;;4935217;29;20270;-81
2023/07/02 11:54:47;;;;;;;12.27;2.92;;;21.40;89.60;;;;;;4921654;29;20188;-80
2023/07/02 11:57:13;;;;;;;10.65;3.00;;;21.40;89.50;;;;;;4900375;29;20648;-81
2023/07/02 11:59:40;;;;;;;12.25;2.92;;;21.40;89.30;;;;;;4917762;29;20199;-80
2023/07/02 12:02:05;;;;;;;7.57;2.67;;;21.30;89.30;;;;;;4929876;29;20612;-79
2023/07/02 12:04:31;;;;;;;8.27;2.83;;;21.20;88.80;;;;;;4907916;29;20188;-81
2023/07/02 12:06:57;;;;;;;11.65;3.05;;;21.20;87.90;;;;;;4906031;29;20188;-79
2023/07/02 12:09:23;;;;;;;7.95;2.88;;;21.10;87.70;;;;;;4900194;29;20651;-80
2023/07/02 12:11:48;;;;;;;8.15;3.10;;;21.10;87.30;;;;;;4900248;29;20257;-80
2023/07/02 12:14:14;;;;;;;16.92;3.65;;;21.00;87.20;;;;;;4928255;29;20183;-79
2023/07/02 12:16:40;;;;;;;11.43;3.42;;;21.00;87.60;;;;;;4934595;29;20199;-80
2023/07/02 12:19:06;;;;;;;12.35;3.10;;;21.10;87.90;;;;;;4935779;29;20179;-80
2023/07/02 12:21:32;;;;;;;11.45;3.50;;;21.10;89.30;;;;;;4931787;29;20647;-81
2023/07/02 12:23:57;;;;;;;9.88;2.80;;;21.00;89.50;;;;;;4931088;29;20187;-81
2023/07/02 12:26:32;;;;;;;9.80;2.97;;;21.00;89.70;;;;;;4906665;29;20554;-90
2023/07/02 12:28:58;;;;;;;12.18;3.50;;;21.00;89.30;;;;;;4903160;29;20211;-83
2023/07/02 12:31:24;;;;;;;9.88;3.67;;;21.00;88.40;;;;;;4893499;29;20197;-81
2023/07/02 12:33:49;;;;;;;10.32;3.65;;;20.90;87.90;;;;;;4934934;29;20183;-79